Harrisburg International Airport
KMDT : now visible

Airfield :











YOU CAN JOIN US ON...

 
LOGIN :

Register | Disclaimer

   EN    FR    IT 

 









Legend :    VFR   Marginal VFR   IFR   Intensive IFR   Very Intensive IFR
Visi :
Ceiling :
>= 8 km
>= 3000ft
5 to 8 km
1000 to 3000 ft
1500m to 5 km
500 to 1000 ft
800 to 1500m
200 to 500 ft
< 800m
< 200 ft
Symbols :   Thunderstorms  Fog  Heavy snow  Heavy precipitations  Wind > 20 kt






- Airport Elevation : 310 ft
- IATA code : MDT


KMDT - Harrisburg International

EXPIRED METARs :
  • 280256Z 00000KT 1SM R13/P6000FT BR BKN004 OVC060 08/07 A2948 RMK AO2 SFC VIS 5 SLP984 T00780072 53006 $
  • 280217Z VRB03KT 1SM R13/P6000FT OVC003 08/08 A2947 RMK AO2 SFC VIS 7 T00830078 $
  • 280207Z 15004KT 1/4SM R13/1200VP6000FT FG VV003 07/06 A2947 RMK AO2 TWR VIS 1 T00670061 $
  • 272217Z 00000KT 2SM BR OVC004 08/08 A2942 RMK AO2 TWR VIS 2 1/2 T00830078 $

TAF KMDT
Valid from the 28 at 04:00 until the 29 at 00:00 UTC


280425Z 2804/2824 32005G25KT 1SM BR SCT006 OVC060
FM281100 28010G20KT P6SM OVC030
FM281600 31010G17KT P6SM OVC050
KZNY FIR / North America



MET'MAP, your aeronautical weather chart ! - Copyright ORBIFLY December 2007 - Disclaimer

ORBIFLY MET'MAP TEAM :

Programming & Development : Alexandra Zaïnal
Original concept : Baudouin d'Aumeries
Technical & hardware support : Manuel Goepfert
Assistance : Marc-Olivier Méhu




SOURCES & CREDITS :

   NOAA       Earth
Advisory